Cambre, Spain
Current Conditions -  °F | °C
As of 11:00 PM on Monday 22 Dec 2014 (Local Time) from LECO Reporting Station
Moderate Fog Moderate Fog  
Wind Chill: 38°   Ceiling: Unl
Heat Index: 41°   Visibility: 0.18mi
Dew Point: 41°   Wind: 5mph
Humidity: 100%   Direction: 190°S
Pressure: 30.36"   Gusts: NA
Location:  43.29°N, 8.35°W
Report Text: LECO 222200Z 19004KT 0300 R21/0400N R03/0375N FG NSC 05/05 Q1028 NOSIG
Loading
Personal Weather Stations






























Interactive Weather Map New forecast layout! Learn more

10-Day Weather Forecast

Advertisements
Track Severe Weather on mobile